sensor_id;sensor_type;location;lat;lon;timestamp;pressure;altitude;pressure_sealevel;temperature;humidity
19672;BME280;9983;51.114;13.788;2023-04-15T00:02:49;98197.91;;;8.71;100.00
19672;BME280;9983;51.114;13.788;2023-04-15T00:07:49;98196.81;;;8.59;100.00
19672;BME280;9983;51.114;13.788;2023-04-15T00:12:50;98202.56;;;8.62;100.00
19672;BME280;9983;51.114;13.788;2023-04-15T00:17:51;98201.56;;;8.91;100.00
19672;BME280;9983;51.114;13.788;2023-04-15T00:22:51;98196.22;;;8.91;100.00
19672;BME280;9983;51.114;13.788;2023-04-15T00:27:52;98196.63;;;8.60;100.00
19672;BME280;9983;51.114;13.788;2023-04-15T00:32:52;98194.19;;;8.93;100.00
19672;BME280;9983;51.114;13.788;2023-04-15T00:37:53;98191.91;;;8.90;100.00
19672;BME280;9983;51.114;13.788;2023-04-15T00:42:53;98190.81;;;8.78;100.00
19672;BME280;9983;51.114;13.788;2023-04-15T00:47:54;98181.59;;;9.22;100.00
19672;BME280;9983;51.114;13.788;2023-04-15T00:52:55;98184.66;;;8.84;100.00
19672;BME280;9983;51.114;13.788;2023-04-15T00:57:56;98175.34;;;9.08;100.00
19672;BME280;9983;51.114;13.788;2023-04-15T01:02:56;98168.19;;;8.81;100.00
19672;BME280;9983;51.114;13.788;2023-04-15T01:07:56;98169.50;;;8.91;100.00
19672;BME280;9983;51.114;13.788;2023-04-15T01:12:57;98157.63;;;9.00;100.00
19672;BME280;9983;51.114;13.788;2023-04-15T01:18:01;98161.81;;;9.09;100.00
19672;BME280;9983;51.114;13.788;2023-04-15T01:23:02;98165.50;;;9.08;100.00
19672;BME280;9983;51.114;13.788;2023-04-15T01:28:02;98163.50;;;9.24;100.00
19672;BME280;9983;51.114;13.788;2023-04-15T01:33:03;98155.91;;;8.86;100.00
19672;BME280;9983;51.114;13.788;2023-04-15T01:38:06;98152.19;;;8.87;100.00
19672;BME280;9983;51.114;13.788;2023-04-15T01:43:06;98151.50;;;9.06;100.00
19672;BME280;9983;51.114;13.788;2023-04-15T01:48:07;98149.59;;;9.35;100.00
19672;BME280;9983;51.114;13.788;2023-04-15T01:53:08;98156.69;;;9.14;100.00
19672;BME280;9983;51.114;13.788;2023-04-15T01:58:09;98138.78;;;9.15;100.00
19672;BME280;9983;51.114;13.788;2023-04-15T02:03:09;98127.63;;;9.05;100.00
19672;BME280;9983;51.114;13.788;2023-04-15T02:08:09;98138.44;;;9.25;100.00
19672;BME280;9983;51.114;13.788;2023-04-15T02:13:10;98128.06;;;9.08;100.00
19672;BME280;9983;51.114;13.788;2023-04-15T02:18:10;98122.28;;;9.05;100.00
19672;BME280;9983;51.114;13.788;2023-04-15T02:23:10;98112.75;;;8.89;100.00
19672;BME280;9983;51.114;13.788;2023-04-15T02:28:10;98116.81;;;9.20;100.00
19672;BME280;9983;51.114;13.788;2023-04-15T02:33:11;98108.66;;;8.93;100.00
19672;BME280;9983;51.114;13.788;2023-04-15T02:38:11;98116.41;;;8.82;100.00
19672;BME280;9983;51.114;13.788;2023-04-15T02:43:11;98119.50;;;9.20;100.00
19672;BME280;9983;51.114;13.788;2023-04-15T02:48:12;98123.19;;;9.19;100.00
19672;BME280;9983;51.114;13.788;2023-04-15T02:53:12;98126.41;;;9.07;100.00
19672;BME280;9983;51.114;13.788;2023-04-15T02:58:15;98116.84;;;9.26;100.00
19672;BME280;9983;51.114;13.788;2023-04-15T03:03:15;98115.56;;;9.16;100.00
19672;BME280;9983;51.114;13.788;2023-04-15T03:08:15;98113.81;;;9.49;100.00
19672;BME280;9983;51.114;13.788;2023-04-15T03:13:16;98110.00;;;9.10;100.00
19672;BME280;9983;51.114;13.788;2023-04-15T03:18:16;98110.38;;;9.07;100.00
19672;BME280;9983;51.114;13.788;2023-04-15T03:23:16;98108.03;;;9.39;100.00
19672;BME280;9983;51.114;13.788;2023-04-15T03:28:17;98098.94;;;9.27;100.00
19672;BME280;9983;51.114;13.788;2023-04-15T03:33:17;98101.91;;;9.45;100.00
19672;BME280;9983;51.114;13.788;2023-04-15T03:38:17;98099.34;;;9.24;100.00
19672;BME280;9983;51.114;13.788;2023-04-15T03:43:18;98090.69;;;9.22;100.00
19672;BME280;9983;51.114;13.788;2023-04-15T03:48:18;98092.97;;;9.25;100.00
19672;BME280;9983;51.114;13.788;2023-04-15T03:53:20;98090.63;;;9.08;100.00
19672;BME280;9983;51.114;13.788;2023-04-15T03:58:20;98080.06;;;9.41;100.00
19672;BME280;9983;51.114;13.788;2023-04-15T04:03:20;98080.78;;;9.16;100.00
19672;BME280;9983;51.114;13.788;2023-04-15T04:08:20;98092.19;;;9.37;100.00
19672;BME280;9983;51.114;13.788;2023-04-15T04:13:21;98087.53;;;9.59;100.00
19672;BME280;9983;51.114;13.788;2023-04-15T04:18:21;98093.81;;;9.32;100.00
19672;BME280;9983;51.114;13.788;2023-04-15T04:23:21;98086.88;;;9.44;100.00
19672;BME280;9983;51.114;13.788;2023-04-15T04:28:22;98076.34;;;9.36;100.00
19672;BME280;9983;51.114;13.788;2023-04-15T04:33:22;98086.25;;;9.42;100.00
19672;BME280;9983;51.114;13.788;2023-04-15T04:38:22;98081.94;;;9.54;100.00
19672;BME280;9983;51.114;13.788;2023-04-15T04:43:22;98092.94;;;9.79;100.00
19672;BME280;9983;51.114;13.788;2023-04-15T04:48:23;98100.25;;;9.44;100.00
19672;BME280;9983;51.114;13.788;2023-04-15T04:53:23;98099.88;;;9.60;100.00
19672;BME280;9983;51.114;13.788;2023-04-15T04:58:23;98093.31;;;9.69;100.00
19672;BME280;9983;51.114;13.788;2023-04-15T05:03:23;98101.34;;;9.82;100.00
19672;BME280;9983;51.114;13.788;2023-04-15T05:08:24;98101.75;;;9.79;100.00
19672;BME280;9983;51.114;13.788;2023-04-15T05:13:24;98100.31;;;9.77;100.00
19672;BME280;9983;51.114;13.788;2023-04-15T05:18:24;98103.63;;;9.92;100.00
19672;BME280;9983;51.114;13.788;2023-04-15T05:23:25;98114.59;;;10.04;100.00
19672;BME280;9983;51.114;13.788;2023-04-15T05:28:25;98109.78;;;9.79;100.00
19672;BME280;9983;51.114;13.788;2023-04-15T05:33:26;98116.41;;;9.97;100.00
19672;BME280;9983;51.114;13.788;2023-04-15T05:38:26;98116.88;;;10.33;100.00
19672;BME280;9983;51.114;13.788;2023-04-15T05:43:26;98116.84;;;10.07;100.00
19672;BME280;9983;51.114;13.788;2023-04-15T05:48:27;98123.97;;;9.73;100.00
19672;BME280;9983;51.114;13.788;2023-04-15T05:53:27;98134.16;;;10.11;100.00
19672;BME280;9983;51.114;13.788;2023-04-15T05:58:27;98145.25;;;10.08;100.00
19672;BME280;9983;51.114;13.788;2023-04-15T06:03:27;98146.47;;;9.85;100.00
19672;BME280;9983;51.114;13.788;2023-04-15T06:08:28;98162.91;;;9.82;100.00
19672;BME280;9983;51.114;13.788;2023-04-15T06:13:28;98159.88;;;9.99;100.00
19672;BME280;9983;51.114;13.788;2023-04-15T06:18:29;98166.59;;;9.68;100.00
19672;BME280;9983;51.114;13.788;2023-04-15T06:23:29;98161.78;;;10.18;100.00
19672;BME280;9983;51.114;13.788;2023-04-15T06:28:29;98163.06;;;10.29;100.00
19672;BME280;9983;51.114;13.788;2023-04-15T06:33:30;98163.06;;;10.29;100.00
19672;BME280;9983;51.114;13.788;2023-04-15T06:38:30;98167.16;;;10.31;100.00
19672;BME280;9983;51.114;13.788;2023-04-15T06:43:31;98174.38;;;10.50;100.00
19672;BME280;9983;51.114;13.788;2023-04-15T06:48:31;98176.63;;;10.40;100.00
19672;BME280;9983;51.114;13.788;2023-04-15T06:53:31;98179.09;;;10.22;100.00
19672;BME280;9983;51.114;13.788;2023-04-15T06:58:31;98172.50;;;10.18;100.00
19672;BME280;9983;51.114;13.788;2023-04-15T07:03:32;98194.38;;;10.41;100.00
19672;BME280;9983;51.114;13.788;2023-04-15T07:08:32;98200.16;;;10.51;100.00
19672;BME280;9983;51.114;13.788;2023-04-15T07:13:33;98202.13;;;10.03;100.00
19672;BME280;9983;51.114;13.788;2023-04-15T07:18:33;98212.47;;;10.19;100.00
19672;BME280;9983;51.114;13.788;2023-04-15T07:23:33;98217.28;;;9.89;100.00
19672;BME280;9983;51.114;13.788;2023-04-15T07:28:33;98217.03;;;10.32;100.00
19672;BME280;9983;51.114;13.788;2023-04-15T07:33:34;98224.03;;;10.40;100.00
19672;BME280;9983;51.114;13.788;2023-04-15T07:38:34;98229.78;;;10.30;100.00
19672;BME280;9983;51.114;13.788;2023-04-15T07:43:34;98233.53;;;10.29;100.00
19672;BME280;9983;51.114;13.788;2023-04-15T07:48:34;98226.91;;;10.38;100.00
19672;BME280;9983;51.114;13.788;2023-04-15T07:53:35;98244.28;;;10.69;100.00
19672;BME280;9983;51.114;13.788;2023-04-15T07:58:35;98241.19;;;10.85;100.00
19672;BME280;9983;51.114;13.788;2023-04-15T08:03:36;98245.09;;;11.02;100.00
19672;BME280;9983;51.114;13.788;2023-04-15T08:08:36;98254.19;;;11.01;100.00
19672;BME280;9983;51.114;13.788;2023-04-15T08:13:36;98265.09;;;10.99;100.00
19672;BME280;9983;51.114;13.788;2023-04-15T08:18:37;98263.03;;;11.08;100.00
19672;BME280;9983;51.114;13.788;2023-04-15T08:23:37;98269.00;;;11.36;100.00
19672;BME280;9983;51.114;13.788;2023-04-15T08:28:39;98266.88;;;11.58;100.00
19672;BME280;9983;51.114;13.788;2023-04-15T08:33:40;98275.63;;;11.21;100.00
19672;BME280;9983;51.114;13.788;2023-04-15T08:38:40;98271.88;;;11.22;100.00
19672;BME280;9983;51.114;13.788;2023-04-15T08:43:51;98275.59;;;11.40;100.00
19672;BME280;9983;51.114;13.788;2023-04-15T08:48:55;98285.50;;;11.33;100.00
19672;BME280;9983;51.114;13.788;2023-04-15T08:53:56;98290.81;;;11.60;100.00
19672;BME280;9983;51.114;13.788;2023-04-15T08:58:56;98289.84;;;11.34;100.00
19672;BME280;9983;51.114;13.788;2023-04-15T09:03:58;98299.88;;;11.72;100.00
19672;BME280;9983;51.114;13.788;2023-04-15T09:08:58;98306.91;;;11.66;100.00
19672;BME280;9983;51.114;13.788;2023-04-15T09:13:58;98310.28;;;11.35;100.00
19672;BME280;9983;51.114;13.788;2023-04-15T09:18:59;98317.69;;;11.07;100.00
19672;BME280;9983;51.114;13.788;2023-04-15T09:24:00;98321.00;;;11.35;100.00
19672;BME280;9983;51.114;13.788;2023-04-15T09:29:10;98329.44;;;11.59;100.00
19672;BME280;9983;51.114;13.788;2023-04-15T09:34:14;98330.06;;;11.61;100.00
19672;BME280;9983;51.114;13.788;2023-04-15T09:39:14;98339.97;;;11.54;100.00
19672;BME280;9983;51.114;13.788;2023-04-15T09:44:25;98345.38;;;11.27;100.00
19672;BME280;9983;51.114;13.788;2023-04-15T09:49:25;98356.06;;;11.01;100.00
19672;BME280;9983;51.114;13.788;2023-04-15T09:54:36;98353.16;;;10.70;100.00
19672;BME280;9983;51.114;13.788;2023-04-15T09:59:37;98356.72;;;11.29;100.00
19672;BME280;9983;51.114;13.788;2023-04-15T10:04:39;98357.53;;;11.23;100.00
19672;BME280;9983;51.114;13.788;2023-04-15T10:09:39;98363.53;;;11.25;100.00
19672;BME280;9983;51.114;13.788;2023-04-15T10:14:41;98382.50;;;11.04;100.00
19672;BME280;9983;51.114;13.788;2023-04-15T10:19:42;98390.31;;;10.99;100.00
19672;BME280;9983;51.114;13.788;2023-04-15T10:24:43;98389.91;;;11.15;100.00
19672;BME280;9983;51.114;13.788;2023-04-15T10:29:44;98377.97;;;11.24;100.00
19672;BME280;9983;51.114;13.788;2023-04-15T10:34:45;98386.25;;;11.29;100.00
19672;BME280;9983;51.114;13.788;2023-04-15T10:39:46;98392.41;;;11.23;100.00
19672;BME280;9983;51.114;13.788;2023-04-15T10:44:50;98387.44;;;11.47;100.00
19672;BME280;9983;51.114;13.788;2023-04-15T10:49:58;98388.31;;;11.54;100.00
19672;BME280;9983;51.114;13.788;2023-04-15T10:55:12;98394.47;;;11.34;100.00
19672;BME280;9983;51.114;13.788;2023-04-15T11:00:17;98402.31;;;11.69;100.00
19672;BME280;9983;51.114;13.788;2023-04-15T11:05:19;98403.56;;;11.60;100.00
19672;BME280;9983;51.114;13.788;2023-04-15T11:15:28;98413.91;;;11.76;100.00
19672;BME280;9983;51.114;13.788;2023-04-15T11:20:31;98425.47;;;11.83;100.00
19672;BME280;9983;51.114;13.788;2023-04-15T11:25:32;98427.06;;;12.17;100.00
19672;BME280;9983;51.114;13.788;2023-04-15T11:30:34;98430.84;;;11.96;100.00
19672;BME280;9983;51.114;13.788;2023-04-15T11:35:35;98438.47;;;12.12;100.00
19672;BME280;9983;51.114;13.788;2023-04-15T11:40:36;98438.13;;;12.47;100.00
19672;BME280;9983;51.114;13.788;2023-04-15T11:45:55;98439.03;;;12.28;100.00
19672;BME280;9983;51.114;13.788;2023-04-15T11:51:00;98446.41;;;12.52;100.00
19672;BME280;9983;51.114;13.788;2023-04-15T11:56:01;98452.63;;;12.46;100.00
19672;BME280;9983;51.114;13.788;2023-04-15T12:01:01;98456.59;;;12.81;100.00
19672;BME280;9983;51.114;13.788;2023-04-15T12:11:15;98472.50;;;12.38;100.00
19672;BME280;9983;51.114;13.788;2023-04-15T12:16:17;98477.06;;;12.38;100.00
19672;BME280;9983;51.114;13.788;2023-04-15T12:21:19;98485.22;;;12.69;100.00
19672;BME280;9983;51.114;13.788;2023-04-15T12:26:32;98484.38;;;12.75;100.00
19672;BME280;9983;51.114;13.788;2023-04-15T12:31:36;98488.56;;;12.58;100.00
19672;BME280;9983;51.114;13.788;2023-04-15T12:36:36;98492.31;;;12.44;100.00
19672;BME280;9983;51.114;13.788;2023-04-15T12:41:37;98502.56;;;12.73;100.00
19672;BME280;9983;51.114;13.788;2023-04-15T12:46:37;98511.66;;;12.72;100.00
19672;BME280;9983;51.114;13.788;2023-04-15T12:51:37;98518.28;;;12.76;100.00
19672;BME280;9983;51.114;13.788;2023-04-15T12:56:38;98514.91;;;12.94;100.00
19672;BME280;9983;51.114;13.788;2023-04-15T13:01:39;98524.94;;;12.67;100.00
19672;BME280;9983;51.114;13.788;2023-04-15T13:06:39;98532.34;;;12.85;100.00
19672;BME280;9983;51.114;13.788;2023-04-15T13:11:40;98538.94;;;12.96;100.00
19672;BME280;9983;51.114;13.788;2023-04-15T13:16:40;98535.47;;;12.75;100.00
19672;BME280;9983;51.114;13.788;2023-04-15T13:21:40;98543.81;;;12.54;100.00
19672;BME280;9983;51.114;13.788;2023-04-15T13:26:40;98536.09;;;12.77;100.00
19672;BME280;9983;51.114;13.788;2023-04-15T13:31:41;98544.31;;;12.96;100.00
19672;BME280;9983;51.114;13.788;2023-04-15T13:36:41;98540.22;;;12.73;100.00
19672;BME280;9983;51.114;13.788;2023-04-15T13:41:41;98551.97;;;13.43;100.00
19672;BME280;9983;51.114;13.788;2023-04-15T13:46:41;98561.38;;;13.65;100.00
19672;BME280;9983;51.114;13.788;2023-04-15T13:51:42;98565.56;;;14.18;100.00
19672;BME280;9983;51.114;13.788;2023-04-15T13:56:42;98565.84;;;14.34;100.00
19672;BME280;9983;51.114;13.788;2023-04-15T14:01:42;98559.56;;;14.40;100.00
19672;BME280;9983;51.114;13.788;2023-04-15T14:06:43;98562.47;;;14.82;100.00
19672;BME280;9983;51.114;13.788;2023-04-15T14:11:44;98568.63;;;14.71;100.00
19672;BME280;9983;51.114;13.788;2023-04-15T14:16:44;98581.56;;;14.37;95.90
19672;BME280;9983;51.114;13.788;2023-04-15T14:21:45;98590.28;;;14.39;94.10
19672;BME280;9983;51.114;13.788;2023-04-15T14:26:45;98600.22;;;14.46;97.79
19672;BME280;9983;51.114;13.788;2023-04-15T14:31:45;98601.72;;;14.60;91.94
19672;BME280;9983;51.114;13.788;2023-04-15T14:36:45;98607.38;;;14.76;89.55
19672;BME280;9983;51.114;13.788;2023-04-15T14:41:46;98603.13;;;14.87;88.37
19672;BME280;9983;51.114;13.788;2023-04-15T14:46:46;98612.84;;;14.70;88.68
19672;BME280;9983;51.114;13.788;2023-04-15T14:51:46;98626.94;;;14.72;86.28
19672;BME280;9983;51.114;13.788;2023-04-15T14:56:47;98627.72;;;15.15;87.28
19672;BME280;9983;51.114;13.788;2023-04-15T15:01:47;98627.88;;;15.02;90.00
19672;BME280;9983;51.114;13.788;2023-04-15T15:06:47;98642.03;;;14.55;91.82
19672;BME280;9983;51.114;13.788;2023-04-15T15:11:48;98638.81;;;14.39;91.40
19672;BME280;9983;51.114;13.788;2023-04-15T15:16:48;98640.59;;;14.77;90.10
19672;BME280;9983;51.114;13.788;2023-04-15T15:21:49;98655.47;;;15.04;86.56
19672;BME280;9983;51.114;13.788;2023-04-15T15:26:49;98661.44;;;15.06;87.11
19672;BME280;9983;51.114;13.788;2023-04-15T15:31:50;98667.47;;;15.27;85.42
19672;BME280;9983;51.114;13.788;2023-04-15T15:36:50;98669.44;;;15.38;83.39
19672;BME280;9983;51.114;13.788;2023-04-15T15:41:50;98682.72;;;15.21;85.99
19672;BME280;9983;51.114;13.788;2023-04-15T15:46:51;98689.34;;;15.00;86.31
19672;BME280;9983;51.114;13.788;2023-04-15T15:51:51;98686.16;;;14.85;89.43
19672;BME280;9983;51.114;13.788;2023-04-15T15:56:51;98692.41;;;14.61;88.60
19672;BME280;9983;51.114;13.788;2023-04-15T16:01:52;98697.00;;;14.22;92.57
19672;BME280;9983;51.114;13.788;2023-04-15T16:06:52;98699.78;;;14.40;92.36
19672;BME280;9983;51.114;13.788;2023-04-15T16:11:52;98705.66;;;14.31;95.12
19672;BME280;9983;51.114;13.788;2023-04-15T16:16:52;98718.53;;;14.29;93.71
19672;BME280;9983;51.114;13.788;2023-04-15T16:21:53;98718.47;;;14.35;94.96
19672;BME280;9983;51.114;13.788;2023-04-15T16:26:53;98717.44;;;14.36;95.71
19672;BME280;9983;51.114;13.788;2023-04-15T16:31:54;98724.38;;;14.19;94.49
19672;BME280;9983;51.114;13.788;2023-04-15T16:36:54;98725.94;;;14.33;95.56
19672;BME280;9983;51.114;13.788;2023-04-15T16:41:55;98736.03;;;14.13;98.40
19672;BME280;9983;51.114;13.788;2023-04-15T16:46:56;98731.94;;;14.04;99.07
19672;BME280;9983;51.114;13.788;2023-04-15T16:51:56;98747.19;;;13.79;96.93
19672;BME280;9983;51.114;13.788;2023-04-15T16:56:56;98754.00;;;13.75;97.38
19672;BME280;9983;51.114;13.788;2023-04-15T17:01:57;98751.78;;;13.72;98.62
19672;BME280;9983;51.114;13.788;2023-04-15T17:06:57;98758.22;;;13.57;100.00
19672;BME280;9983;51.114;13.788;2023-04-15T17:11:58;98766.34;;;13.31;100.00
19672;BME280;9983;51.114;13.788;2023-04-15T17:16:58;98766.34;;;13.31;100.00
19672;BME280;9983;51.114;13.788;2023-04-15T17:21:58;98773.59;;;13.11;100.00
19672;BME280;9983;51.114;13.788;2023-04-15T17:26:59;98786.00;;;13.32;100.00
19672;BME280;9983;51.114;13.788;2023-04-15T17:32:00;98789.34;;;13.27;100.00
19672;BME280;9983;51.114;13.788;2023-04-15T17:37:00;98805.06;;;12.97;100.00
19672;BME280;9983;51.114;13.788;2023-04-15T17:42:00;98801.09;;;12.60;100.00
19672;BME280;9983;51.114;13.788;2023-04-15T17:47:01;98815.41;;;12.93;100.00
19672;BME280;9983;51.114;13.788;2023-04-15T17:52:01;98824.91;;;12.76;100.00
19672;BME280;9983;51.114;13.788;2023-04-15T17:57:01;98822.31;;;12.29;100.00
19672;BME280;9983;51.114;13.788;2023-04-15T18:02:02;98828.91;;;12.33;100.00
19672;BME280;9983;51.114;13.788;2023-04-15T18:07:03;98835.50;;;12.24;100.00
19672;BME280;9983;51.114;13.788;2023-04-15T18:12:04;98834.28;;;12.33;100.00
19672;BME280;9983;51.114;13.788;2023-04-15T18:17:06;98852.50;;;11.90;100.00
19672;BME280;9983;51.114;13.788;2023-04-15T18:22:06;98855.81;;;11.64;100.00
19672;BME280;9983;51.114;13.788;2023-04-15T18:27:07;98862.81;;;11.86;100.00
19672;BME280;9983;51.114;13.788;2023-04-15T18:32:07;98870.38;;;12.10;100.00
19672;BME280;9983;51.114;13.788;2023-04-15T18:37:07;98876.53;;;11.70;100.00
19672;BME280;9983;51.114;13.788;2023-04-15T18:42:08;98885.69;;;11.26;100.00
19672;BME280;9983;51.114;13.788;2023-04-15T18:47:08;98891.88;;;11.76;100.00
19672;BME280;9983;51.114;13.788;2023-04-15T18:52:09;98896.84;;;11.30;100.00
19672;BME280;9983;51.114;13.788;2023-04-15T18:57:09;98898.34;;;11.11;100.00
19672;BME280;9983;51.114;13.788;2023-04-15T19:02:10;98899.19;;;11.39;100.00
19672;BME280;9983;51.114;13.788;2023-04-15T19:07:10;98903.53;;;11.40;100.00
19672;BME280;9983;51.114;13.788;2023-04-15T19:12:11;98910.97;;;11.38;100.00
19672;BME280;9983;51.114;13.788;2023-04-15T19:17:11;98914.03;;;11.14;100.00
19672;BME280;9983;51.114;13.788;2023-04-15T19:22:11;98935.31;;;11.37;100.00
19672;BME280;9983;51.114;13.788;2023-04-15T19:27:11;98935.47;;;10.72;100.00
19672;BME280;9983;51.114;13.788;2023-04-15T19:32:12;98935.75;;;10.98;100.00
19672;BME280;9983;51.114;13.788;2023-04-15T19:37:13;98939.19;;;11.13;100.00
19672;BME280;9983;51.114;13.788;2023-04-15T19:42:13;98939.47;;;10.61;100.00
19672;BME280;9983;51.114;13.788;2023-04-15T19:47:14;98945.97;;;10.52;100.00
19672;BME280;9983;51.114;13.788;2023-04-15T19:52:14;98947.69;;;10.59;100.00
19672;BME280;9983;51.114;13.788;2023-04-15T19:57:14;98956.00;;;10.06;100.00
19672;BME280;9983;51.114;13.788;2023-04-15T20:02:15;98953.97;;;9.78;100.00
19672;BME280;9983;51.114;13.788;2023-04-15T20:07:15;98960.81;;;9.96;100.00
19672;BME280;9983;51.114;13.788;2023-04-15T20:12:17;98966.78;;;10.35;100.00
19672;BME280;9983;51.114;13.788;2023-04-15T20:17:17;98978.00;;;9.86;100.00
19672;BME280;9983;51.114;13.788;2023-04-15T20:22:17;98988.06;;;9.99;100.00
19672;BME280;9983;51.114;13.788;2023-04-15T20:27:19;98994.19;;;9.70;100.00
19672;BME280;9983;51.114;13.788;2023-04-15T20:32:19;98999.91;;;9.67;100.00
19672;BME280;9983;51.114;13.788;2023-04-15T20:37:19;99002.69;;;9.74;100.00
19672;BME280;9983;51.114;13.788;2023-04-15T20:42:20;99005.75;;;9.48;100.00
19672;BME280;9983;51.114;13.788;2023-04-15T20:47:20;99003.72;;;9.50;100.00
19672;BME280;9983;51.114;13.788;2023-04-15T20:52:20;99021.91;;;9.32;100.00
19672;BME280;9983;51.114;13.788;2023-04-15T20:57:21;99008.72;;;9.53;100.00
19672;BME280;9983;51.114;13.788;2023-04-15T21:02:23;99019.78;;;9.50;100.00
19672;BME280;9983;51.114;13.788;2023-04-15T21:07:23;99023.53;;;9.41;100.00
19672;BME280;9983;51.114;13.788;2023-04-15T21:12:24;99023.22;;;9.59;100.00
19672;BME280;9983;51.114;13.788;2023-04-15T21:17:24;99025.78;;;9.52;100.00
19672;BME280;9983;51.114;13.788;2023-04-15T21:22:25;99047.97;;;9.61;100.00
19672;BME280;9983;51.114;13.788;2023-04-15T21:27:25;99051.78;;;9.66;100.00
19672;BME280;9983;51.114;13.788;2023-04-15T21:32:25;99054.97;;;9.39;100.00
19672;BME280;9983;51.114;13.788;2023-04-15T21:37:26;99057.09;;;9.21;100.00
19672;BME280;9983;51.114;13.788;2023-04-15T21:42:26;99055.69;;;9.33;100.00
19672;BME280;9983;51.114;13.788;2023-04-15T21:47:26;99056.16;;;9.05;100.00
19672;BME280;9983;51.114;13.788;2023-04-15T21:52:26;99068.03;;;8.72;100.00
19672;BME280;9983;51.114;13.788;2023-04-15T21:57:27;99068.09;;;9.26;100.00
19672;BME280;9983;51.114;13.788;2023-04-15T22:02:28;99080.16;;;8.35;100.00
19672;BME280;9983;51.114;13.788;2023-04-15T22:07:29;99081.06;;;8.67;100.00
19672;BME280;9983;51.114;13.788;2023-04-15T22:12:29;99082.44;;;8.55;100.00
19672;BME280;9983;51.114;13.788;2023-04-15T22:17:30;99081.72;;;8.77;100.00
19672;BME280;9983;51.114;13.788;2023-04-15T22:22:30;99095.66;;;8.40;100.00
19672;BME280;9983;51.114;13.788;2023-04-15T22:27:31;99091.44;;;8.54;100.00
19672;BME280;9983;51.114;13.788;2023-04-15T22:32:32;99107.75;;;8.83;100.00
19672;BME280;9983;51.114;13.788;2023-04-15T22:37:32;99109.31;;;8.61;100.00
19672;BME280;9983;51.114;13.788;2023-04-15T22:42:32;99120.09;;;8.84;100.00
19672;BME280;9983;51.114;13.788;2023-04-15T22:47:32;99120.84;;;8.70;100.00
19672;BME280;9983;51.114;13.788;2023-04-15T22:52:33;99124.38;;;8.22;100.00
19672;BME280;9983;51.114;13.788;2023-04-15T22:57:33;99122.09;;;8.82;100.00
19672;BME280;9983;51.114;13.788;2023-04-15T23:02:33;99127.06;;;9.01;100.00
19672;BME280;9983;51.114;13.788;2023-04-15T23:07:34;99136.09;;;8.45;100.00
19672;BME280;9983;51.114;13.788;2023-04-15T23:12:34;99132.00;;;8.73;100.00
19672;BME280;9983;51.114;13.788;2023-04-15T23:17:35;99140.56;;;8.53;100.00
19672;BME280;9983;51.114;13.788;2023-04-15T23:22:35;99136.88;;;8.05;100.00
19672;BME280;9983;51.114;13.788;2023-04-15T23:27:39;99130.56;;;7.90;100.00
19672;BME280;9983;51.114;13.788;2023-04-15T23:32:39;99145.91;;;8.04;100.00
19672;BME280;9983;51.114;13.788;2023-04-15T23:37:39;99149.22;;;8.30;100.00
19672;BME280;9983;51.114;13.788;2023-04-15T23:42:40;99144.28;;;8.35;100.00
19672;BME280;9983;51.114;13.788;2023-04-15T23:47:41;99151.59;;;8.25;100.00
19672;BME280;9983;51.114;13.788;2023-04-15T23:52:41;99143.91;;;8.22;100.00
19672;BME280;9983;51.114;13.788;2023-04-15T23:57:41;99152.56;;;7.84;100.00
